Time;durP1;ratioP1;P1;durP2;ratioP2;P2;SDS_P1;SDS_P2;PMS_P1;PMS_P2;Temp;Humidity;BMP_temperature;BMP_pressure;BME280_temperature;BME280_humidity;BME280_pressure;Samples;Min_cycle;Max_cycle;Signal;HPM_P1;HPM_P2
2023/03/06 00:00:53;;;;;;;6.18;4.68;;;;;;;2.64;68.08;99582.41;10485647;28;20558;-77
2023/03/06 00:05:58;;;;;;;6.82;4.63;;;;;;;2.64;68.01;99573.63;10490558;28;20052;-77
2023/03/06 00:11:01;;;;;;;10.15;5.20;;;;;;;2.70;67.67;99574.09;10487422;28;20040;-78
2023/03/06 00:16:05;;;;;;;5.22;3.70;;;;;;;2.62;67.97;99571.03;10490812;28;20475;-77
2023/03/06 00:21:10;;;;;;;7.13;4.20;;;;;;;2.60;67.97;99560.53;10485850;28;20040;-77
2023/03/06 00:26:13;;;;;;;12.00;4.63;;;;;;;2.94;66.96;99555.81;10486373;28;20060;-77
2023/03/06 00:31:17;;;;;;;8.50;4.60;;;;;;;2.83;67.11;99552.97;10488842;28;20091;-77
2023/03/06 00:36:21;;;;;;;8.10;3.72;;;;;;;2.73;67.54;99544.72;10479387;28;20037;-77
2023/03/06 00:41:24;;;;;;;8.38;4.18;;;;;;;2.61;68.45;99538.38;10474212;28;20106;-77
2023/03/06 00:46:26;;;;;;;8.75;4.38;;;;;;;2.86;67.47;99528.91;10473290;28;20467;-77
2023/03/06 00:51:32;;;;;;;9.32;4.68;;;;;;;2.68;68.02;99525.59;10472870;28;20113;-78
2023/03/06 00:56:35;;;;;;;6.65;4.53;;;;;;;2.70;67.95;99518.38;10467574;28;20049;-77
2023/03/06 01:01:38;;;;;;;7.32;4.60;;;;;;;2.76;67.69;99525.13;10466756;28;20091;-77
2023/03/06 01:06:42;;;;;;;9.05;4.65;;;;;;;2.80;67.17;99511.56;10483859;28;20048;-77
2023/03/06 01:11:45;;;;;;;9.27;5.40;;;;;;;2.81;66.98;99507.97;10482645;28;20043;-77
2023/03/06 01:16:48;;;;;;;9.68;5.90;;;;;;;2.71;67.51;99498.88;10495845;28;20040;-79
2023/03/06 01:21:53;;;;;;;13.82;6.18;;;;;;;2.44;68.49;99489.94;10482370;28;20049;-78
2023/03/06 01:26:56;;;;;;;10.18;6.05;;;;;;;2.29;68.98;99487.28;10490764;28;20070;-78
2023/03/06 01:31:59;;;;;;;14.43;6.38;;;;;;;2.56;68.30;99479.47;10475263;28;20083;-78
2023/03/06 01:37:03;;;;;;;11.82;6.85;;;;;;;2.53;68.14;99469.06;10490906;28;20065;-78
2023/03/06 01:42:06;;;;;;;16.38;8.35;;;;;;;2.51;68.55;99467.44;10496832;28;20443;-78
2023/03/06 01:47:09;;;;;;;14.35;8.50;;;;;;;2.47;68.65;99468.53;10473468;28;20427;-78
2023/03/06 01:52:18;;;;;;;16.38;9.30;;;;;;;2.20;69.94;99456.06;10493266;28;20388;-78
2023/03/06 01:57:23;;;;;;;16.60;9.68;;;;;;;2.28;69.52;99459.09;10479007;28;20045;-78
2023/03/06 02:02:26;;;;;;;18.05;10.88;;;;;;;2.15;69.49;99456.34;10494958;28;20056;-78
2023/03/06 02:07:32;;;;;;;21.38;11.05;;;;;;;2.04;70.68;99450.84;10510912;28;20040;-78
2023/03/06 02:12:36;;;;;;;19.10;10.45;;;;;;;2.19;70.82;99435.78;10470465;28;20095;-79
2023/03/06 02:17:39;;;;;;;17.65;10.38;;;;;;;2.33;70.14;99442.91;10480045;28;20041;-78
2023/03/06 02:22:52;;;;;;;22.48;11.65;;;;;;;2.01;71.49;99442.25;10486294;28;20044;-78
2023/03/06 02:27:56;;;;;;;20.10;11.68;;;;;;;2.05;71.56;99441.09;10475063;28;20052;-78
2023/03/06 02:32:59;;;;;;;22.60;13.82;;;;;;;2.11;71.47;99433.63;10476610;28;20080;-78
2023/03/06 02:38:06;;;;;;;19.50;12.15;;;;;;;1.82;72.50;99434.53;10495434;28;20033;-78
2023/03/06 02:43:12;;;;;;;21.25;12.10;;;;;;;1.93;72.54;99424.16;10475339;28;20055;-78
2023/03/06 02:48:16;;;;;;;26.33;14.15;;;;;;;1.95;72.28;99414.31;10470578;28;20046;-78
2023/03/06 02:53:21;;;;;;;26.52;14.35;;;;;;;2.05;72.06;99404.84;10496030;28;20055;-78
2023/03/06 02:58:25;;;;;;;19.02;11.75;;;;;;;1.92;72.34;99395.94;10486888;28;20045;-78
2023/03/06 03:03:28;;;;;;;26.27;13.38;;;;;;;1.88;72.41;99392.63;10501849;28;20044;-78
2023/03/06 03:08:33;;;;;;;24.67;14.00;;;;;;;1.91;72.55;99387.16;10485099;28;20131;-78
2023/03/06 03:13:39;;;;;;;23.90;13.80;;;;;;;1.86;73.15;99380.44;10495285;28;20091;-78
2023/03/06 03:18:46;;;;;;;17.05;10.43;;;;;;;1.77;72.60;99375.72;10475442;28;20068;-78
2023/03/06 03:23:52;;;;;;;24.98;13.38;;;;;;;1.73;73.31;99369.75;10463203;28;20045;-78
2023/03/06 03:28:56;;;;;;;27.02;14.45;;;;;;;1.90;73.09;99366.06;10494263;28;20066;-78
2023/03/06 03:33:59;;;;;;;26.55;14.13;;;;;;;2.04;72.61;99362.56;10473799;28;20126;-78
2023/03/06 03:39:04;;;;;;;27.88;13.85;;;;;;;2.08;72.10;99351.66;10482035;22;20040;-76
2023/03/06 03:44:09;;;;;;;24.75;14.32;;;;;;;2.07;72.00;99357.94;10510185;28;20062;-77
2023/03/06 03:49:12;;;;;;;29.45;15.48;;;;;;;1.99;72.41;99343.47;10508899;28;20105;-77
2023/03/06 03:54:14;;;;;;;21.83;12.82;;;;;;;1.97;72.58;99337.41;10509622;28;20044;-76
2023/03/06 03:59:22;;;;;;;25.30;14.05;;;;;;;1.89;72.78;99338.75;10505275;28;20055;-76
2023/03/06 04:05:01;;;;;;;25.63;13.38;;;;;;;1.82;73.20;99325.97;10524665;28;20529;-76
2023/03/06 04:10:04;;;;;;;28.65;15.35;;;;;;;1.84;73.22;99335.53;10506615;28;20045;-76
2023/03/06 04:15:09;;;;;;;25.13;15.13;;;;;;;1.88;72.87;99321.13;10506546;28;20453;-76
2023/03/06 04:20:14;;;;;;;25.58;14.55;;;;;;;1.86;72.67;99320.38;10511681;28;20051;-76
2023/03/06 04:25:18;;;;;;;30.13;16.13;;;;;;;1.84;72.57;99314.34;10500414;28;20139;-76
2023/03/06 04:30:23;;;;;;;28.58;16.25;;;;;;;1.79;72.27;99323.53;10523422;28;20040;-77
2023/03/06 04:35:27;;;;;;;26.70;15.07;;;;;;;1.73;72.45;99320.31;10521717;28;20074;-77
2023/03/06 04:40:36;;;;;;;26.60;13.90;;;;;;;1.52;73.54;99323.41;10505559;28;20529;-77
2023/03/06 04:45:41;;;;;;;28.17;15.52;;;;;;;1.46;74.32;99314.03;10527978;28;20043;-77
2023/03/06 04:50:44;;;;;;;30.33;14.95;;;;;;;1.40;74.86;99317.03;10520740;28;20522;-76
2023/03/06 04:55:47;;;;;;;30.05;15.98;;;;;;;1.42;75.75;99313.34;10530920;28;20042;-75
2023/03/06 05:00:51;;;;;;;26.15;15.15;;;;;;;1.30;76.29;99305.31;10516663;28;20049;-78
2023/03/06 05:05:54;;;;;;;25.48;13.32;;;;;;;1.33;77.09;99300.69;10523911;28;20040;-77
2023/03/06 05:11:00;;;;;;;29.92;14.80;;;;;;;1.55;76.23;99296.75;10534107;28;20040;-77
2023/03/06 05:16:06;;;;;;;27.63;14.63;;;;;;;1.57;75.89;99295.72;10526961;28;20048;-77
2023/03/06 05:21:09;;;;;;;25.85;14.32;;;;;;;1.71;75.90;99295.69;10534247;28;20087;-77
2023/03/06 05:26:14;;;;;;;25.50;13.32;;;;;;;1.65;75.54;99285.50;10529623;28;20044;-76
2023/03/06 05:31:18;;;;;;;21.75;13.52;;;;;;;1.69;75.91;99286.16;10520457;28;20479;-77
2023/03/06 05:36:21;;;;;;;22.58;12.23;;;;;;;1.30;77.42;99279.72;10529999;28;20095;-76
2023/03/06 05:41:24;;;;;;;22.65;12.40;;;;;;;1.50;76.26;99279.34;10528355;28;20063;-77
2023/03/06 05:46:28;;;;;;;19.63;9.70;;;;;;;1.39;76.26;99273.84;10535264;28;20036;-77
2023/03/06 05:51:31;;;;;;;21.33;12.38;;;;;;;0.92;78.84;99285.47;10523480;28;20111;-77
2023/03/06 05:56:33;;;;;;;20.95;10.65;;;;;;;1.25;77.15;99279.97;10534492;28;20541;-77
2023/03/06 06:01:37;;;;;;;18.88;10.80;;;;;;;1.15;77.21;99273.56;10531234;28;20074;-77
2023/03/06 06:06:40;;;;;;;16.05;9.02;;;;;;;1.39;76.62;99270.34;10529637;28;20039;-77
2023/03/06 06:11:43;;;;;;;20.48;11.05;;;;;;;1.04;77.83;99274.19;10529793;28;20105;-76
2023/03/06 06:16:47;;;;;;;19.90;11.40;;;;;;;1.31;76.68;99269.97;10525128;28;20086;-78
2023/03/06 06:21:52;;;;;;;15.48;10.00;;;;;;;1.40;75.79;99256.16;10526956;28;20032;-75
2023/03/06 06:26:57;;;;;;;20.55;10.63;;;;;;;1.35;76.18;99256.47;10523219;28;20079;-78
2023/03/06 06:32:01;;;;;;;24.95;14.82;;;;;;;1.39;75.71;99257.97;10532155;28;20105;-77
2023/03/06 06:37:04;;;;;;;17.45;11.60;;;;;;;1.16;76.81;99267.31;10527543;28;20049;-77
2023/03/06 06:42:08;;;;;;;21.58;11.50;;;;;;;1.24;76.35;99264.22;10526852;28;20443;-77
2023/03/06 06:47:33;;;;;;;22.55;11.73;;;;;;;1.21;76.05;99248.53;10527993;28;20514;-76
2023/03/06 06:52:36;;;;;;;24.17;14.60;;;;;;;1.60;75.18;99254.97;10520044;28;20154;-77
2023/03/06 06:57:40;;;;;;;29.92;16.33;;;;;;;1.76;74.96;99252.22;10533359;28;20098;-77
2023/03/06 07:02:47;;;;;;;27.45;17.02;;;;;;;1.39;75.73;99257.13;10522886;28;20043;-77
2023/03/06 07:07:50;;;;;;;27.33;13.57;;;;;;;0.99;76.32;99262.19;10527175;28;20036;-77
2023/03/06 07:12:55;;;;;;;28.40;16.25;;;;;;;1.67;74.97;99262.44;10526844;28;20402;-76
2023/03/06 07:18:00;;;;;;;25.58;15.65;;;;;;;1.52;74.82;99255.44;10521654;28;20039;-77
2023/03/06 07:23:03;;;;;;;31.42;15.45;;;;;;;1.66;73.18;99266.00;10529850;28;20239;-77
2023/03/06 07:28:06;;;;;;;21.00;12.30;;;;;;;1.54;73.67;99260.63;10520856;28;20041;-77
2023/03/06 07:33:10;;;;;;;24.83;15.90;;;;;;;1.30;75.27;99260.34;10527123;28;20028;-77
2023/03/06 07:38:13;;;;;;;18.58;11.30;;;;;;;1.42;75.13;99265.72;10526462;28;20120;-77
2023/03/06 07:43:16;;;;;;;21.67;11.82;;;;;;;1.45;75.43;99259.38;10524209;28;20044;-77
2023/03/06 07:48:30;;;;;;;23.70;13.38;;;;;;;1.47;75.53;99261.00;10505951;28;20042;-77
2023/03/06 07:53:34;;;;;;;25.00;15.45;;;;;;;1.75;76.14;99258.44;10519250;28;20467;-76
2023/03/06 07:58:37;;;;;;;18.80;10.70;;;;;;;1.60;75.56;99270.84;10530970;28;20154;-77
2023/03/06 08:03:42;;;;;;;19.25;12.07;;;;;;;1.43;76.67;99264.78;10521525;28;20068;-76
2023/03/06 08:08:46;;;;;;;25.98;14.13;;;;;;;1.71;77.00;99260.44;10532406;28;20051;-77
2023/03/06 08:13:51;;;;;;;21.88;11.32;;;;;;;1.09;79.31;99259.81;10525737;28;20074;-77
2023/03/06 08:18:56;;;;;;;24.70;12.63;;;;;;;1.68;78.69;99261.47;10523572;28;20043;-77
2023/03/06 08:23:59;;;;;;;23.00;11.60;;;;;;;1.28;79.84;99257.78;10531263;28;20499;-77
2023/03/06 08:29:02;;;;;;;22.08;10.57;;;;;;;1.67;79.08;99275.69;10522930;28;20055;-77
2023/03/06 08:34:08;;;;;;;20.70;13.20;;;;;;;1.62;79.33;99279.53;10526992;28;20533;-76
2023/03/06 08:39:11;;;;;;;19.73;11.10;;;;;;;1.32;80.22;99267.25;10524623;28;20111;-77
2023/03/06 08:44:14;;;;;;;13.50;8.27;;;;;;;1.32;80.32;99275.19;10526195;28;20448;-77
2023/03/06 08:49:18;;;;;;;18.85;11.52;;;;;;;1.49;80.40;99284.75;10503556;28;20152;-76
2023/03/06 08:54:21;;;;;;;23.67;12.73;;;;;;;0.96;81.35;99280.84;10470528;28;20048;-77
2023/03/06 08:59:24;;;;;;;22.17;12.65;;;;;;;1.36;80.66;99281.13;10481400;28;21213;-76
2023/03/06 09:04:30;;;;;;;26.92;13.57;;;;;;;1.62;80.24;99283.03;10482122;28;20051;-76
2023/03/06 09:09:33;;;;;;;21.50;12.55;;;;;;;1.55;81.15;99279.06;10483380;28;21506;-76
2023/03/06 09:14:36;;;;;;;19.13;10.75;;;;;;;1.50;80.46;99287.28;10483360;28;20059;-75
2023/03/06 09:19:40;;;;;;;18.83;11.15;;;;;;;2.19;78.89;99279.47;10486262;28;20635;-77
2023/03/06 09:24:43;;;;;;;20.80;10.88;;;;;;;1.70;79.92;99278.13;10483896;28;20091;-77
2023/03/06 09:29:45;;;;;;;15.77;9.43;;;;;;;0.95;82.17;99282.66;10478233;28;20060;-77
2023/03/06 09:34:50;;;;;;;20.70;10.77;;;;;;;1.48;81.98;99286.53;10485525;28;20071;-77
2023/03/06 09:39:53;;;;;;;17.63;9.10;;;;;;;1.73;81.65;99295.63;10483179;28;20498;-77
2023/03/06 09:44:58;;;;;;;17.05;10.30;;;;;;;1.72;81.34;99294.75;10483301;28;20058;-78
2023/03/06 09:50:23;;;;;;;16.00;8.73;;;;;;;1.35;81.89;99295.31;10489405;28;20048;-78
2023/03/06 09:55:30;;;;;;;15.80;10.35;;;;;;;1.29;83.27;99293.88;10482332;28;20048;-78
2023/03/06 10:00:38;;;;;;;17.63;10.40;;;;;;;1.13;84.46;99293.09;10494719;28;20425;-78
2023/03/06 10:05:47;;;;;;;14.93;10.10;;;;;;;0.85;83.99;99289.44;10492034;28;20048;-78
2023/03/06 10:10:58;;;;;;;17.40;10.77;;;;;;;1.46;83.89;99293.72;10499638;28;20048;-78
2023/03/06 10:16:11;;;;;;;21.02;11.63;;;;;;;2.39;82.64;99292.31;10494699;28;20052;-78
2023/03/06 10:21:30;;;;;;;19.33;11.48;;;;;;;2.20;81.58;99281.19;10488045;28;20064;-77
2023/03/06 10:26:39;;;;;;;15.73;9.23;;;;;;;1.40;82.42;99291.44;10493547;28;20040;-77
2023/03/06 10:31:47;;;;;;;12.70;9.02;;;;;;;1.90;80.53;99287.47;10479700;28;20047;-77
2023/03/06 10:36:52;;;;;;;14.15;8.95;;;;;;;1.79;80.60;99289.09;10496395;28;20708;-76
2023/03/06 10:41:55;;;;;;;12.50;7.93;;;;;;;1.77;79.66;99286.53;10492318;28;20075;-78
2023/03/06 10:46:58;;;;;;;15.82;9.65;;;;;;;2.19;79.39;99287.41;10496956;28;20419;-78
2023/03/06 10:52:06;;;;;;;13.18;9.55;;;;;;;2.41;79.11;99294.84;10482626;28;20046;-79
2023/03/06 10:57:24;;;;;;;12.63;8.93;;;;;;;2.33;79.30;99298.00;10497095;28;20071;-77
2023/03/06 11:02:30;;;;;;;10.30;7.38;;;;;;;3.06;78.76;99299.44;10498071;28;20169;-78
2023/03/06 11:07:35;;;;;;;10.52;6.28;;;;;;;3.06;76.94;99304.75;10497774;28;20536;-79
2023/03/06 11:12:40;;;;;;;11.32;8.32;;;;;;;2.90;75.65;99304.06;10472480;28;20526;-79
2023/03/06 11:17:50;;;;;;;15.57;9.93;;;;;;;3.23;76.80;99300.97;10498778;28;20050;-79
2023/03/06 11:23:02;;;;;;;14.38;9.07;;;;;;;4.16;77.87;99298.91;10495046;28;20048;-79
2023/03/06 11:28:12;;;;;;;11.43;8.37;;;;;;;4.26;74.33;99293.78;10490515;28;20044;-79
2023/03/06 11:33:22;;;;;;;12.75;7.55;;;;;;;3.42;72.55;99292.59;10495558;28;20279;-78
2023/03/06 11:38:36;;;;;;;10.80;7.55;;;;;;;3.20;73.41;99298.53;10493101;28;20514;-78
2023/03/06 11:43:49;;;;;;;9.77;6.88;;;;;;;3.50;74.37;99300.88;10488763;28;20066;-79
2023/03/06 11:49:00;;;;;;;6.55;5.60;;;;;;;3.05;73.01;99292.47;10493227;28;20065;-77
2023/03/06 11:54:05;;;;;;;12.60;8.40;;;;;;;4.06;75.12;99284.56;10491053;28;20083;-79
2023/03/06 11:59:24;;;;;;;10.02;6.78;;;;;;;4.58;73.42;99281.66;10487200;28;20048;-78
2023/03/06 12:04:45;;;;;;;7.25;5.65;;;;;;;4.94;70.75;99284.38;10486018;28;20062;-78
2023/03/06 12:09:55;;;;;;;7.90;4.07;;;;;;;4.65;69.15;99282.03;10474642;28;20043;-78
2023/03/06 12:15:14;;;;;;;7.10;4.80;;;;;;;4.58;69.16;99281.66;10477886;28;20047;-78
2023/03/06 12:20:32;;;;;;;6.00;4.63;;;;;;;5.00;70.25;99294.56;10483859;28;20049;-78
2023/03/06 12:25:37;;;;;;;6.20;4.47;;;;;;;5.14;69.40;99291.72;10490234;28;20091;-78
2023/03/06 12:30:57;;;;;;;7.85;4.00;;;;;;;6.14;67.94;99281.28;10495021;28;20098;-78
2023/03/06 12:36:16;;;;;;;3.53;3.20;;;;;;;5.85;64.21;99276.44;10491681;28;20046;-78
2023/03/06 12:41:30;;;;;;;3.65;3.08;;;;;;;6.94;67.74;99272.09;10470744;28;20134;-80
2023/03/06 12:46:37;;;;;;;3.75;2.60;;;;;;;7.00;66.37;99268.94;10487577;28;20048;-79
2023/03/06 12:51:42;;;;;;;3.40;3.00;;;;;;;6.07;65.79;99274.75;10481942;28;20052;-79
2023/03/06 12:56:48;;;;;;;5.82;3.85;;;;;;;5.36;68.23;99266.13;10489565;28;20044;-78
2023/03/06 13:02:07;;;;;;;3.28;2.92;;;;;;;5.25;70.02;99272.25;10478197;28;20154;-77
2023/03/06 13:07:25;;;;;;;3.40;3.10;;;;;;;5.30;68.30;99267.44;10485901;28;20066;-78
2023/03/06 13:12:42;;;;;;;2.53;2.33;;;;;;;5.35;59.15;99265.28;10484504;28;20135;-79
2023/03/06 13:17:45;;;;;;;3.80;2.55;;;;;;;6.43;60.67;99268.25;10489662;28;20051;-78
2023/03/06 13:22:47;;;;;;;3.78;2.78;;;;;;;10.65;52.24;99248.97;10471091;28;20048;-79
2023/03/06 13:28:03;;;;;;;2.92;2.38;;;;;;;9.65;55.82;99241.69;10493334;28;20055;-79
2023/03/06 13:33:44;;;;;;;3.50;2.40;;;;;;;12.27;53.27;99222.50;10493281;28;20063;-79
2023/03/06 13:38:58;;;;;;;2.63;2.42;;;;;;;13.59;41.35;99217.06;10487862;28;20086;-79
2023/03/06 13:44:29;;;;;;;2.70;2.30;;;;;;;11.41;42.72;99221.59;10479653;28;21146;-75
2023/03/06 13:49:33;;;;;;;2.90;2.60;;;;;;;14.68;43.42;99209.19;10482393;28;20040;-76
2023/03/06 13:54:48;;;;;;;3.30;2.15;;;;;;;14.29;42.15;99204.63;10489534;28;20162;-76
2023/03/06 14:00:31;;;;;;;3.42;2.45;;;;;;;11.79;42.36;99199.75;10483368;28;20044;-75
2023/03/06 14:05:42;;;;;;;3.38;2.63;;;;;;;9.42;49.30;99212.53;10467352;28;20040;-78
2023/03/06 14:10:47;;;;;;;2.70;2.13;;;;;;;8.20;45.81;99207.75;10492483;28;20043;-79
2023/03/06 14:15:51;;;;;;;2.63;2.35;;;;;;;7.25;45.77;99212.47;10495051;28;20052;-78
2023/03/06 14:20:59;;;;;;;3.22;2.83;;;;;;;7.69;53.01;99201.56;10495881;28;20509;-79
2023/03/06 14:26:13;;;;;;;2.40;2.20;;;;;;;10.49;44.85;99192.41;10495263;28;20052;-79
2023/03/06 14:31:19;;;;;;;2.08;1.88;;;;;;;11.40;39.69;99184.94;10491687;28;20083;-79
2023/03/06 14:36:28;;;;;;;2.58;2.03;;;;;;;10.33;41.12;99183.19;10501771;28;20059;-79
2023/03/06 14:41:33;;;;;;;2.17;1.98;;;;;;;8.82;42.26;99179.81;10492076;28;20043;-79
2023/03/06 14:46:36;;;;;;;3.05;2.28;;;;;;;7.13;44.56;99186.81;10502971;28;20129;-78
2023/03/06 14:51:43;;;;;;;2.83;2.25;;;;;;;7.09;48.16;99187.22;10527249;28;20099;-78
2023/03/06 14:56:48;;;;;;;2.45;1.80;;;;;;;6.75;46.47;99187.38;10519577;28;20161;-78
2023/03/06 15:01:56;;;;;;;3.58;2.47;;;;;;;6.66;47.02;99183.63;10488440;28;20040;-79
2023/03/06 15:07:01;;;;;;;3.45;1.92;;;;;;;6.76;47.00;99181.06;10484529;28;20125;-78
2023/03/06 15:12:06;;;;;;;1.40;1.25;;;;;;;7.23;44.92;99165.50;10490599;28;20051;-78
2023/03/06 15:17:32;;;;;;;2.60;1.67;;;;;;;6.89;45.46;99167.56;10497747;28;20103;-78
2023/03/06 15:22:37;;;;;;;2.33;1.55;;;;;;;6.83;46.11;99163.56;10487192;28;20072;-79
2023/03/06 15:27:40;;;;;;;4.22;1.73;;;;;;;7.16;46.99;99159.84;10487414;28;20044;-78
2023/03/06 15:32:43;;;;;;;3.83;1.85;;;;;;;6.82;45.58;99159.19;10489137;28;20047;-78
2023/03/06 15:37:47;;;;;;;2.83;1.50;;;;;;;6.39;45.48;99160.13;10470620;28;20253;-77
2023/03/06 15:42:50;;;;;;;4.22;1.50;;;;;;;6.02;45.89;99149.81;10468678;28;20097;-77
2023/03/06 15:47:55;;;;;;;2.67;1.20;;;;;;;5.84;47.41;99167.28;10466466;28;20419;-77
2023/03/06 15:52:59;;;;;;;1.70;1.05;;;;;;;6.07;47.15;99165.44;10488706;28;20044;-77
2023/03/06 15:58:03;;;;;;;2.42;1.35;;;;;;;5.21;47.24;99162.50;10470876;28;20067;-78
2023/03/06 16:03:06;;;;;;;3.17;1.50;;;;;;;5.08;47.75;99153.78;10488067;28;20046;-78
2023/03/06 16:08:13;;;;;;;2.13;1.83;;;;;;;4.58;49.74;99146.00;10468650;28;20075;-77
2023/03/06 16:13:20;;;;;;;1.95;1.73;;;;;;;4.74;49.85;99140.34;10490436;28;20052;-78
2023/03/06 16:18:23;;;;;;;1.90;1.80;;;;;;;4.20;50.04;99137.38;10468582;28;20423;-78
2023/03/06 16:23:27;;;;;;;2.55;1.63;;;;;;;4.17;50.83;99138.50;10477934;28;20547;-77
2023/03/06 16:28:32;;;;;;;2.58;1.75;;;;;;;4.34;50.95;99139.88;10484751;28;20048;-77
2023/03/06 16:33:35;;;;;;;2.00;1.88;;;;;;;4.40;51.60;99126.13;10487713;28;20657;-76
2023/03/06 16:38:39;;;;;;;2.72;1.83;;;;;;;4.11;53.11;99134.47;10487905;28;20094;-77
2023/03/06 16:43:42;;;;;;;3.30;2.75;;;;;;;4.16;53.63;99131.47;10481607;28;20044;-77
2023/03/06 16:48:45;;;;;;;3.85;3.10;;;;;;;3.93;54.44;99122.53;10490013;28;21253;-77
2023/03/06 16:53:50;;;;;;;3.67;3.17;;;;;;;3.87;55.28;99125.66;10485780;28;20051;-77
2023/03/06 16:58:53;;;;;;;4.22;3.00;;;;;;;3.59;56.06;99126.78;10486592;28;20051;-76
2023/03/06 17:03:56;;;;;;;5.35;3.40;;;;;;;3.48;56.35;99119.59;10489796;28;20055;-76
2023/03/06 17:09:00;;;;;;;5.30;3.33;;;;;;;3.60;55.98;99117.88;10493240;28;20054;-76
2023/03/06 17:14:03;;;;;;;5.55;3.53;;;;;;;3.54;55.89;99118.31;10493293;28;20074;-76
2023/03/06 17:19:06;;;;;;;5.97;3.63;;;;;;;3.54;55.62;99119.19;10497371;28;20036;-77
2023/03/06 17:24:10;;;;;;;6.13;3.63;;;;;;;3.46;56.04;99119.72;10487335;28;20162;-76
2023/03/06 17:29:13;;;;;;;7.13;3.25;;;;;;;3.50;56.09;99115.03;10495106;28;20059;-76
2023/03/06 17:34:16;;;;;;;5.43;3.55;;;;;;;3.47;56.02;99116.09;10495462;28;20045;-75
2023/03/06 17:39:20;;;;;;;4.68;3.90;;;;;;;3.44;56.23;99121.63;10493486;28;20059;-76
2023/03/06 17:44:23;;;;;;;4.07;3.67;;;;;;;3.31;56.80;99117.31;10510949;28;20059;-76
2023/03/06 17:49:26;;;;;;;9.57;5.45;;;;;;;3.14;57.34;99118.50;10496690;28;20122;-77
2023/03/06 17:54:32;;;;;;;7.22;4.40;;;;;;;3.17;57.53;99112.97;10466198;28;21333;-75
2023/03/06 17:59:34;;;;;;;6.25;4.63;;;;;;;3.08;58.38;99108.31;10487656;28;20055;-75
2023/03/06 18:04:37;;;;;;;7.93;5.18;;;;;;;3.00;58.89;99104.41;10494904;28;20134;-76
2023/03/06 18:09:42;;;;;;;8.13;5.53;;;;;;;3.00;59.27;99101.75;10496420;28;20133;-75
2023/03/06 18:14:47;;;;;;;7.72;5.90;;;;;;;2.99;59.73;99088.56;10472706;28;20045;-75
2023/03/06 18:19:51;;;;;;;9.48;6.00;;;;;;;2.92;60.42;99082.03;10486390;28;20128;-75
2023/03/06 18:24:55;;;;;;;11.20;7.07;;;;;;;2.86;61.59;99083.28;10469434;28;20048;-74
2023/03/06 18:29:58;;;;;;;9.98;6.80;;;;;;;2.81;62.34;99082.75;10482732;28;20608;-75
2023/03/06 18:35:01;;;;;;;10.48;7.65;;;;;;;2.79;62.86;99080.22;10481993;28;20048;-77
2023/03/06 18:40:06;;;;;;;11.00;7.53;;;;;;;2.78;63.16;99070.56;10464572;28;20052;-76
2023/03/06 18:45:11;;;;;;;16.58;7.43;;;;;;;2.74;63.62;99068.22;10493522;28;20448;-75
2023/03/06 18:50:16;;;;;;;11.70;7.60;;;;;;;2.80;63.69;99065.16;10487821;28;20044;-75
2023/03/06 18:55:20;;;;;;;14.98;7.22;;;;;;;2.73;64.16;99059.41;10450944;28;20067;-75
2023/03/06 19:00:24;;;;;;;10.35;6.85;;;;;;;2.67;64.82;99062.50;10481813;28;20101;-75
2023/03/06 19:05:27;;;;;;;14.00;8.23;;;;;;;2.65;64.96;99047.66;10499422;28;20050;-74
2023/03/06 19:10:34;;;;;;;13.27;7.55;;;;;;;2.52;65.63;99051.09;10494067;28;20052;-76
2023/03/06 19:15:42;;;;;;;15.63;8.02;;;;;;;2.40;66.47;99038.72;10487850;28;20132;-76
2023/03/06 19:20:45;;;;;;;14.32;9.20;;;;;;;2.33;67.01;99033.00;10458223;28;20071;-75
2023/03/06 19:26:08;;;;;;;15.63;8.52;;;;;;;2.47;66.91;99041.78;10479007;28;20076;-75
2023/03/06 19:31:12;;;;;;;17.15;9.98;;;;;;;2.34;67.02;99040.00;10467718;28;20548;-75
2023/03/06 19:36:17;;;;;;;16.75;11.02;;;;;;;2.38;67.36;99036.16;10512501;28;20055;-75
2023/03/06 19:41:27;;;;;;;20.80;11.75;;;;;;;2.37;68.18;99034.47;10499047;28;20044;-77
2023/03/06 19:46:30;;;;;;;24.85;13.38;;;;;;;2.33;69.26;99021.53;10486878;28;20106;-76
2023/03/06 19:51:33;;;;;;;27.80;15.48;;;;;;;2.15;71.04;99019.19;10487040;28;20047;-76
2023/03/06 19:56:38;;;;;;;30.17;18.02;;;;;;;2.29;72.11;99028.00;10493556;28;20048;-77
2023/03/06 20:01:41;;;;;;;27.48;14.57;;;;;;;2.08;73.84;99007.31;10457865;28;20048;-77
2023/03/06 20:06:48;;;;;;;34.78;18.35;;;;;;;2.08;74.34;98996.72;10497122;28;20087;-75
2023/03/06 20:11:53;;;;;;;27.38;13.18;;;;;;;1.95;74.75;98985.28;10470823;28;20055;-77
2023/03/06 20:16:56;;;;;;;35.88;15.80;;;;;;;2.20;74.62;98983.59;10486186;28;20052;-76
2023/03/06 20:21:59;;;;;;;38.70;20.17;;;;;;;2.24;74.09;98983.28;10487752;28;20410;-76
2023/03/06 20:27:03;;;;;;;39.17;21.45;;;;;;;2.38;74.30;98964.59;10491364;28;20524;-76
2023/03/06 20:32:06;;;;;;;36.55;18.85;;;;;;;2.34;74.29;98963.13;10479057;28;20047;-77
2023/03/06 20:37:10;;;;;;;37.97;20.35;;;;;;;2.37;74.29;98952.31;10489959;28;20221;-77
2023/03/06 20:42:14;;;;;;;47.65;22.15;;;;;;;2.23;75.66;98941.84;10481759;28;20061;-77
2023/03/06 20:47:17;;;;;;;48.42;23.15;;;;;;;2.25;76.08;98936.41;10488755;28;20595;-77
2023/03/06 20:52:19;;;;;;;40.22;19.88;;;;;;;1.97;76.90;98933.03;10473354;28;20056;-76
2023/03/06 20:57:23;;;;;;;41.30;22.42;;;;;;;2.08;77.32;98927.84;10483830;28;21190;-77
2023/03/06 21:02:26;;;;;;;44.47;21.63;;;;;;;1.97;77.25;98924.25;10486827;28;20359;-77
2023/03/06 21:07:29;;;;;;;40.58;19.00;;;;;;;1.42;79.25;98927.00;10480965;28;20054;-77
2023/03/06 21:12:33;;;;;;;43.22;20.65;;;;;;;1.81;78.38;98917.38;10489118;28;20048;-77
2023/03/06 21:17:36;;;;;;;43.85;22.27;;;;;;;1.77;78.97;98902.63;10487041;28;20059;-77
2023/03/06 21:22:39;;;;;;;37.65;19.45;;;;;;;1.51;80.30;98883.22;10475977;28;20270;-76
2023/03/06 21:27:43;;;;;;;48.90;22.70;;;;;;;1.43;80.79;98878.44;10479752;28;20059;-77
2023/03/06 21:32:46;;;;;;;42.72;18.23;;;;;;;1.44;80.09;98864.25;10486132;28;20133;-77
2023/03/06 21:37:49;;;;;;;43.90;21.60;;;;;;;1.68;79.63;98861.75;10480596;28;20041;-77
2023/03/06 21:42:53;;;;;;;47.10;21.67;;;;;;;1.76;79.19;98853.28;10483688;28;20148;-75
2023/03/06 21:47:56;;;;;;;51.20;24.63;;;;;;;1.80;79.61;98838.03;10482204;28;20067;-76
2023/03/06 21:52:58;;;;;;;51.13;24.42;;;;;;;1.61;79.40;98830.50;10495194;28;20052;-76
2023/03/06 21:58:02;;;;;;;39.35;18.33;;;;;;;1.12;80.50;98831.19;10485468;28;20063;-76
2023/03/06 22:03:05;;;;;;;44.13;21.13;;;;;;;1.49;79.17;98822.47;10491841;28;20561;-76
2023/03/06 22:08:08;;;;;;;37.80;17.92;;;;;;;1.14;80.00;98808.13;10506808;22;20052;-80
2023/03/06 22:13:12;;;;;;;34.90;16.80;;;;;;;0.95;79.38;98798.78;10521935;28;20044;-78
2023/03/06 22:18:15;;;;;;;44.53;20.08;;;;;;;1.33;78.83;98778.63;10501523;28;20689;-78
2023/03/06 22:23:18;;;;;;;47.72;23.40;;;;;;;1.68;78.12;98773.56;10496806;28;20044;-82
2023/03/06 22:28:22;;;;;;;44.70;18.60;;;;;;;1.40;77.66;98754.31;10493250;28;20044;-80
2023/03/06 22:33:25;;;;;;;45.83;19.35;;;;;;;1.71;76.79;98745.06;10499705;28;20040;-80
2023/03/06 22:38:28;;;;;;;31.70;14.15;;;;;;;1.20;76.78;98760.94;10498926;28;20048;-79
2023/03/06 22:43:32;;;;;;;30.35;13.73;;;;;;;1.27;76.49;98724.34;10492756;28;20457;-79
2023/03/06 22:48:35;;;;;;;35.17;16.77;;;;;;;1.43;76.16;98722.34;10490665;28;20044;-79
2023/03/06 22:53:39;;;;;;;31.33;12.93;;;;;;;1.63;75.37;98701.56;10484151;28;20045;-79
2023/03/06 22:58:43;;;;;;;23.85;11.10;;;;;;;1.21;75.88;98698.34;10489160;28;20075;-78
2023/03/06 23:03:48;;;;;;;28.48;13.45;;;;;;;1.54;76.41;98694.25;10488991;28;20045;-79
2023/03/06 23:08:54;;;;;;;26.77;12.18;;;;;;;1.11;76.42;98668.19;10473110;28;20041;-80
2023/03/06 23:13:58;;;;;;;31.75;13.70;;;;;;;1.60;75.00;98677.97;10487973;28;20084;-79
2023/03/06 23:19:20;;;;;;;31.42;12.68;;;;;;;1.54;74.59;98659.84;10479524;28;20045;-79
2023/03/06 23:24:41;;;;;;;29.45;14.35;;;;;;;1.54;74.38;98655.44;10484312;28;20056;-80
2023/03/06 23:29:49;;;;;;;22.77;11.13;;;;;;;1.14;74.65;98641.50;10474345;28;20041;-80
2023/03/06 23:34:51;;;;;;;31.58;15.32;;;;;;;1.90;73.41;98629.91;10481676;28;20045;-79
2023/03/06 23:39:54;;;;;;;23.52;10.48;;;;;;;1.19;75.78;98634.09;10465936;28;20158;-80